Time;durP1;ratioP1;P1;durP2;ratioP2;P2;SDS_P1;SDS_P2;PMS_P1;PMS_P2;Temp;Humidity;BMP_temperature;BMP_pressure;BME280_temperature;BME280_humidity;BME280_pressure;Samples;Min_cycle;Max_cycle;Signal;HPM_P1;HPM_P2
2021/05/21 00:00:52;;;;;;;3.00;0.77;;;13.70;99.90;;;;;;6075679;23;20006;-85
2021/05/21 00:03:20;;;;;;;2.55;0.80;;;13.80;99.90;;;;;;6139118;23;20021;-85
2021/05/21 00:05:47;;;;;;;1.52;0.77;;;13.80;99.90;;;;;;6103838;23;20030;-85
2021/05/21 00:08:14;;;;;;;2.80;1.63;;;13.80;99.90;;;;;;6070127;23;20026;-86
2021/05/21 00:10:41;;;;;;;5.85;0.80;;;13.80;99.90;;;;;;6075382;23;20030;-86
2021/05/21 00:13:08;;;;;;;1.27;0.60;;;13.80;99.90;;;;;;6094717;23;20026;-86
2021/05/21 00:15:34;;;;;;;8.32;1.00;;;13.90;99.90;;;;;;6101200;23;20026;-85
2021/05/21 00:18:01;;;;;;;1.13;0.73;;;13.90;99.90;;;;;;6122109;23;20132;-85
2021/05/21 00:20:28;;;;;;;1.85;0.98;;;13.90;99.90;;;;;;6087991;23;20057;-85
2021/05/21 00:22:55;;;;;;;4.47;1.10;;;13.90;99.90;;;;;;6113018;23;20022;-86
2021/05/21 00:25:22;;;;;;;2.38;0.75;;;13.90;99.90;;;;;;6088376;23;20060;-86
2021/05/21 00:27:49;;;;;;;4.35;1.00;;;13.80;99.90;;;;;;6095965;23;20045;-86
2021/05/21 00:30:16;;;;;;;4.20;0.90;;;13.80;99.90;;;;;;6081308;23;20042;-86
2021/05/21 00:32:43;;;;;;;5.28;0.75;;;13.80;99.90;;;;;;6098265;23;20026;-86
2021/05/21 00:35:10;;;;;;;3.17;1.00;;;13.80;99.90;;;;;;6099698;23;20021;-86
2021/05/21 00:37:37;;;;;;;2.35;1.02;;;13.80;99.90;;;;;;6083913;23;20049;-86
2021/05/21 00:40:04;;;;;;;4.32;1.02;;;13.80;99.90;;;;;;6096842;23;20037;-85
2021/05/21 00:42:32;;;;;;;2.35;0.75;;;13.80;99.90;;;;;;6085241;23;20022;-86
2021/05/21 00:45:02;;;;;;;2.50;0.70;;;13.90;99.90;;;;;;6095876;23;20024;-86
2021/05/21 00:47:30;;;;;;;4.00;0.95;;;13.90;99.90;;;;;;6097151;23;20101;-85
2021/05/21 00:49:58;;;;;;;1.85;1.60;;;13.90;99.90;;;;;;6083382;23;20022;-85
2021/05/21 00:52:28;;;;;;;1.55;0.88;;;13.90;99.90;;;;;;6097444;23;20025;-85
2021/05/21 00:54:55;;;;;;;2.10;0.85;;;13.90;99.90;;;;;;6093450;23;20069;-85
2021/05/21 00:57:22;;;;;;;4.63;1.33;;;13.90;99.90;;;;;;6071869;23;20406;-85
2021/05/21 00:59:50;;;;;;;1.60;0.90;;;13.90;99.90;;;;;;6100005;23;20029;-86
2021/05/21 01:02:19;;;;;;;2.53;0.70;;;14.00;99.90;;;;;;6099118;23;20014;-87
2021/05/21 01:04:46;;;;;;;4.28;1.00;;;14.00;99.90;;;;;;6082604;23;20407;-86
2021/05/21 01:07:13;;;;;;;5.07;1.05;;;14.00;99.90;;;;;;6095468;23;20026;-85
2021/05/21 01:09:40;;;;;;;5.82;1.23;;;13.90;99.90;;;;;;6094639;23;20014;-85
2021/05/21 01:12:08;;;;;;;1.35;1.00;;;13.70;99.90;;;;;;6100638;23;20029;-86
2021/05/21 01:14:45;;;;;;;3.10;1.10;;;13.30;99.90;;;;;;6099822;23;20451;-85
2021/05/21 01:17:11;;;;;;;7.13;1.60;;;13.00;99.90;;;;;;6065005;23;20078;-85
2021/05/21 01:19:38;;;;;;;8.90;1.52;;;12.80;99.90;;;;;;6099724;23;20002;-85
2021/05/21 01:22:05;;;;;;;6.78;2.33;;;12.70;99.90;;;;;;6098694;23;20022;-85
2021/05/21 01:24:32;;;;;;;14.73;1.77;;;12.50;99.90;;;;;;6075441;23;20030;-85
2021/05/21 01:27:05;;;;;;;11.38;2.80;;;12.40;99.90;;;;;;6099321;23;20045;-85
2021/05/21 01:29:32;;;;;;;12.47;1.70;;;12.30;99.90;;;;;;6099812;23;20018;-86
2021/05/21 01:32:06;;;;;;;13.75;3.35;;;12.20;99.90;;;;;;6096286;23;20246;-86
2021/05/21 01:34:35;;;;;;;13.25;2.45;;;12.20;99.90;;;;;;6096311;23;20514;-86
2021/05/21 01:37:02;;;;;;;19.83;1.90;;;12.10;99.90;;;;;;6122195;23;20038;-86
2021/05/21 01:39:35;;;;;;;13.95;2.28;;;12.10;99.90;;;;;;6093427;23;20071;-86
2021/05/21 01:42:02;;;;;;;17.85;3.67;;;12.00;99.90;;;;;;6125585;23;20042;-84
2021/05/21 01:44:29;;;;;;;17.27;3.17;;;12.00;99.90;;;;;;6100769;23;20026;-85
2021/05/21 01:46:56;;;;;;;13.25;2.00;;;12.00;99.90;;;;;;6099182;23;20014;-84
2021/05/21 01:49:22;;;;;;;16.65;3.20;;;12.00;99.90;;;;;;6099870;23;20069;-85
2021/05/21 01:51:58;;;;;;;15.65;2.55;;;12.00;99.90;;;;;;6100352;23;20038;-85
2021/05/21 01:54:26;;;;;;;13.73;2.08;;;12.00;99.90;;;;;;6125776;23;20346;-84
2021/05/21 01:56:53;;;;;;;13.43;2.30;;;12.00;99.90;;;;;;6099550;23;20062;-85
2021/05/21 01:59:24;;;;;;;13.43;2.42;;;12.00;99.90;;;;;;6084334;23;20014;-85
2021/05/21 02:01:51;;;;;;;20.00;2.60;;;12.00;99.90;;;;;;6099551;23;20027;-85
2021/05/21 02:04:38;;;;;;;24.27;3.58;;;12.00;99.90;;;;;;6124847;23;20454;-85
2021/05/21 02:07:07;;;;;;;13.95;2.05;;;12.00;99.90;;;;;;6098248;23;20412;-85
2021/05/21 02:09:55;;;;;;;19.15;2.80;;;11.90;99.90;;;;;;6098298;23;20018;-85
2021/05/21 02:12:22;;;;;;;11.10;1.75;;;11.90;99.90;;;;;;6100815;23;20049;-85
2021/05/21 02:14:50;;;;;;;17.90;3.67;;;11.90;99.90;;;;;;6100428;23;20025;-85
2021/05/21 02:17:17;;;;;;;17.35;2.10;;;11.80;99.90;;;;;;6098316;23;20052;-85
2021/05/21 02:19:44;;;;;;;17.17;3.78;;;11.60;99.90;;;;;;6098235;23;20049;-86
2021/05/21 02:22:12;;;;;;;14.80;2.28;;;11.50;99.90;;;;;;6097641;23;20396;-87
2021/05/21 02:24:39;;;;;;;18.40;3.30;;;11.40;99.90;;;;;;6097273;23;20022;-86
2021/05/21 02:27:06;;;;;;;17.92;3.95;;;11.30;99.90;;;;;;6100110;23;20092;-86
2021/05/21 02:29:33;;;;;;;17.42;3.05;;;11.00;99.90;;;;;;6096860;23;20018;-85
2021/05/21 02:32:00;;;;;;;16.27;2.20;;;10.80;99.90;;;;;;6096651;23;20057;-86
2021/05/21 02:34:27;;;;;;;11.57;2.92;;;10.70;99.90;;;;;;6098769;23;20085;-86
2021/05/21 02:36:54;;;;;;;14.95;2.05;;;10.60;99.90;;;;;;6098203;23;20371;-85
2021/05/21 02:39:21;;;;;;;16.50;2.60;;;10.50;99.90;;;;;;6095699;23;20010;-85
2021/05/21 02:41:48;;;;;;;19.25;2.05;;;10.40;99.90;;;;;;6099315;23;20446;-85
2021/05/21 02:44:14;;;;;;;15.52;2.33;;;10.40;99.90;;;;;;6099575;23;20024;-85
2021/05/21 02:46:41;;;;;;;14.77;3.30;;;10.40;99.90;;;;;;6099705;23;20040;-86
2021/05/21 02:49:08;;;;;;;16.65;3.03;;;10.40;99.90;;;;;;6099164;23;20567;-86
2021/05/21 02:51:35;;;;;;;13.38;3.40;;;10.40;99.90;;;;;;6097141;23;20073;-86
2021/05/21 02:54:05;;;;;;;15.43;2.92;;;10.50;99.90;;;;;;6099373;23;20030;-86
2021/05/21 02:56:32;;;;;;;13.57;2.90;;;10.40;99.90;;;;;;6100212;23;20022;-86
2021/05/21 02:58:58;;;;;;;18.00;2.28;;;10.40;99.90;;;;;;6100165;23;20022;-85
2021/05/21 03:01:25;;;;;;;18.70;2.58;;;10.50;99.90;;;;;;6100120;23;20096;-85
2021/05/21 03:03:52;;;;;;;19.60;3.60;;;10.50;99.90;;;;;;6102178;23;20022;-85
2021/05/21 03:06:19;;;;;;;17.23;3.03;;;10.50;99.90;;;;;;6102688;23;20029;-84
2021/05/21 03:08:46;;;;;;;21.30;4.53;;;10.50;99.90;;;;;;6126156;23;20041;-85
2021/05/21 03:11:12;;;;;;;20.08;2.85;;;10.50;99.90;;;;;;6101668;23;20053;-85
2021/05/21 03:13:39;;;;;;;16.48;2.65;;;10.50;99.90;;;;;;6102214;23;20398;-85
2021/05/21 03:16:06;;;;;;;22.52;3.40;;;10.50;99.90;;;;;;6100278;23;20062;-84
2021/05/21 03:18:33;;;;;;;20.75;2.47;;;10.50;99.90;;;;;;6099781;23;20057;-84
2021/05/21 03:20:59;;;;;;;17.98;3.08;;;10.50;99.90;;;;;;6100387;23;20022;-84
2021/05/21 03:23:26;;;;;;;17.23;3.63;;;10.50;99.90;;;;;;6126722;23;20026;-84
2021/05/21 03:25:53;;;;;;;15.68;2.95;;;10.50;99.90;;;;;;6076329;23;20086;-84
2021/05/21 03:28:20;;;;;;;19.85;2.50;;;10.50;99.90;;;;;;6084050;23;20026;-85
2021/05/21 03:30:47;;;;;;;19.90;2.88;;;10.50;99.90;;;;;;6100451;23;20510;-85
2021/05/21 03:33:15;;;;;;;20.90;3.25;;;10.50;99.90;;;;;;6126569;23;20018;-86
2021/05/21 03:35:42;;;;;;;19.95;3.20;;;10.50;99.90;;;;;;6097259;23;20009;-85
2021/05/21 03:38:09;;;;;;;20.25;3.08;;;10.50;99.90;;;;;;6095612;23;20026;-85
2021/05/21 03:40:38;;;;;;;22.75;3.45;;;10.50;99.90;;;;;;6075132;23;20052;-84
2021/05/21 03:43:06;;;;;;;19.70;3.67;;;10.40;99.90;;;;;;6124056;23;20057;-84
2021/05/21 03:45:34;;;;;;;17.67;2.75;;;10.50;99.90;;;;;;6100793;23;20026;-85
2021/05/21 03:48:01;;;;;;;20.55;3.50;;;10.50;99.90;;;;;;6101053;23;20073;-85
2021/05/21 03:50:28;;;;;;;19.48;2.55;;;10.50;99.90;;;;;;6099967;23;20411;-85
2021/05/21 03:52:55;;;;;;;21.20;3.47;;;10.50;99.90;;;;;;6125039;23;20073;-84
2021/05/21 03:55:22;;;;;;;21.67;3.13;;;10.50;99.90;;;;;;6100409;23;21521;-84
2021/05/21 03:57:49;;;;;;;20.85;3.05;;;10.50;99.90;;;;;;6124215;23;20018;-85
2021/05/21 04:00:18;;;;;;;21.05;4.05;;;10.40;99.90;;;;;;6100244;23;20025;-84
2021/05/21 04:02:47;;;;;;;18.63;3.05;;;10.40;99.90;;;;;;6087134;23;20053;-84
2021/05/21 04:05:14;;;;;;;15.80;3.13;;;10.40;99.90;;;;;;6125884;23;20029;-85
2021/05/21 04:07:41;;;;;;;19.45;3.00;;;10.40;99.90;;;;;;6123188;23;20040;-85
2021/05/21 04:10:08;;;;;;;27.55;4.57;;;10.40;99.90;;;;;;6099396;23;20018;-84
2021/05/21 04:12:35;;;;;;;20.50;3.35;;;10.30;99.90;;;;;;6123741;23;20037;-86
2021/05/21 04:15:03;;;;;;;24.08;3.67;;;10.30;99.90;;;;;;6096233;23;20021;-85
2021/05/21 04:17:30;;;;;;;15.80;3.10;;;10.30;99.90;;;;;;6097689;23;20077;-85
2021/05/21 04:19:56;;;;;;;20.65;3.15;;;10.30;99.90;;;;;;6099073;23;20022;-85
2021/05/21 04:22:23;;;;;;;16.83;4.80;;;10.30;99.90;;;;;;6099039;23;20502;-85
2021/05/21 04:24:51;;;;;;;10.45;2.35;;;10.30;99.90;;;;;;6098961;23;20033;-85
2021/05/21 04:27:17;;;;;;;20.17;3.08;;;10.30;99.90;;;;;;6100373;23;20037;-85
2021/05/21 04:29:44;;;;;;;21.67;3.38;;;10.40;99.90;;;;;;6102876;23;20041;-85
2021/05/21 04:32:11;;;;;;;16.10;2.28;;;10.40;99.90;;;;;;6127864;23;20041;-85
2021/05/21 04:34:38;;;;;;;20.33;3.20;;;10.40;99.90;;;;;;6102570;23;21319;-85
2021/05/21 04:37:04;;;;;;;19.00;3.35;;;10.40;99.90;;;;;;6100327;23;20501;-86
2021/05/21 04:39:31;;;;;;;19.13;3.30;;;10.50;99.90;;;;;;6099793;23;20474;-85
2021/05/21 04:41:58;;;;;;;22.40;4.47;;;10.50;99.90;;;;;;6100566;23;20025;-85
2021/05/21 04:44:25;;;;;;;27.58;3.92;;;10.50;99.90;;;;;;6102119;23;20032;-86
2021/05/21 04:46:51;;;;;;;16.52;3.40;;;10.60;99.90;;;;;;6099250;23;20073;-86
2021/05/21 04:49:34;;;;;;;11.93;2.50;;;10.60;99.90;;;;;;6103458;23;20022;-86
2021/05/21 04:52:01;;;;;;;21.63;3.42;;;10.70;99.90;;;;;;6100621;23;20029;-85
2021/05/21 04:54:29;;;;;;;24.67;2.95;;;10.80;99.90;;;;;;6098778;23;20067;-85
2021/05/21 04:56:56;;;;;;;20.58;3.42;;;10.80;99.90;;;;;;6101514;23;20037;-85
2021/05/21 04:59:23;;;;;;;15.98;2.80;;;10.90;99.90;;;;;;6124167;23;20041;-85
2021/05/21 05:01:50;;;;;;;20.25;3.10;;;11.00;99.90;;;;;;6101477;23;20024;-85
2021/05/21 05:04:17;;;;;;;20.83;4.60;;;11.20;99.90;;;;;;6098843;23;20053;-85
2021/05/21 05:06:46;;;;;;;26.33;3.97;;;11.40;99.90;;;;;;6099096;23;20041;-86
2021/05/21 05:09:13;;;;;;;19.65;2.30;;;11.50;99.90;;;;;;6081840;23;20041;-86
2021/05/21 05:11:41;;;;;;;17.05;2.50;;;11.50;99.90;;;;;;6097245;23;20057;-86
2021/05/21 05:14:09;;;;;;;22.40;3.42;;;11.50;99.90;;;;;;6092880;23;20022;-86
2021/05/21 05:16:37;;;;;;;32.13;6.55;;;11.40;99.90;;;;;;6098750;23;20029;-86
2021/05/21 05:19:05;;;;;;;19.20;3.72;;;11.40;99.90;;;;;;6096451;23;20481;-86
2021/05/21 05:21:34;;;;;;;14.45;3.28;;;11.40;99.90;;;;;;6096184;23;20045;-86
2021/05/21 05:24:02;;;;;;;23.73;3.70;;;11.50;99.90;;;;;;6099463;23;20010;-85
2021/05/21 05:26:29;;;;;;;20.77;3.88;;;11.50;99.90;;;;;;6101077;23;20101;-86
2021/05/21 05:28:58;;;;;;;25.83;3.15;;;11.60;99.90;;;;;;6097535;23;20045;-85
2021/05/21 05:31:24;;;;;;;20.13;2.70;;;11.60;99.90;;;;;;6100210;23;20547;-85
2021/05/21 05:33:51;;;;;;;20.67;3.45;;;11.70;99.90;;;;;;6099578;23;20451;-85
2021/05/21 05:36:18;;;;;;;14.05;2.28;;;11.90;99.90;;;;;;6097073;23;20022;-86
2021/05/21 05:38:45;;;;;;;16.25;2.92;;;12.00;99.90;;;;;;6096763;23;20041;-86
2021/05/21 05:41:12;;;;;;;16.73;3.53;;;12.10;99.90;;;;;;6120627;23;20022;-86
2021/05/21 05:43:38;;;;;;;13.25;2.53;;;12.20;99.90;;;;;;6097425;23;20022;-86
2021/05/21 05:46:05;;;;;;;19.63;3.30;;;12.30;99.90;;;;;;6094034;23;20033;-86
2021/05/21 05:48:33;;;;;;;22.25;3.13;;;12.30;99.90;;;;;;6097288;23;20057;-86
2021/05/21 05:51:00;;;;;;;22.42;2.70;;;12.40;99.90;;;;;;6093413;23;20589;-86
2021/05/21 05:53:26;;;;;;;19.70;3.45;;;12.40;99.90;;;;;;6095475;23;20034;-87
2021/05/21 05:55:53;;;;;;;21.17;2.90;;;12.50;99.90;;;;;;6095818;23;20022;-86
2021/05/21 05:58:20;;;;;;;20.15;2.22;;;12.50;99.90;;;;;;6097399;23;20053;-86
2021/05/21 06:00:46;;;;;;;16.20;2.35;;;12.60;99.90;;;;;;6100928;23;20100;-85
2021/05/21 06:03:13;;;;;;;19.17;3.22;;;12.60;99.90;;;;;;6100119;23;20072;-85
2021/05/21 06:05:40;;;;;;;18.33;2.40;;;12.70;99.90;;;;;;6099805;23;21040;-86
2021/05/21 06:08:08;;;;;;;15.32;2.67;;;12.70;99.90;;;;;;6100172;23;20355;-86
2021/05/21 06:10:36;;;;;;;14.55;2.15;;;12.80;99.90;;;;;;6099372;23;20033;-87
2021/05/21 06:13:08;;;;;;;12.95;2.58;;;13.00;99.90;;;;;;6097510;23;20024;-86
2021/05/21 06:15:35;;;;;;;14.02;1.77;;;13.20;99.90;;;;;;6094537;23;20458;-87
2021/05/21 06:18:03;;;;;;;24.38;3.15;;;13.40;99.90;;;;;;6095429;23;20053;-87
2021/05/21 06:20:31;;;;;;;16.38;2.92;;;13.50;99.90;;;;;;6095801;23;20033;-87
2021/05/21 06:22:58;;;;;;;22.77;2.65;;;13.50;99.90;;;;;;6120580;23;19998;-87
2021/05/21 06:25:56;;;;;;;13.82;2.30;;;13.60;99.90;;;;;;6094215;23;20053;-87
2021/05/21 06:28:19;;;;;;;13.93;3.38;;;13.70;99.90;;;;;;6121605;23;20040;-87
2021/05/21 06:30:46;;;;;;;17.48;3.15;;;13.80;99.90;;;;;;6096448;23;20010;-86
2021/05/21 06:33:13;;;;;;;8.00;1.75;;;13.90;99.90;;;;;;6099846;23;20112;-87
2021/05/21 06:35:40;;;;;;;13.65;2.10;;;14.10;99.90;;;;;;6071588;23;20045;-86
2021/05/21 06:38:07;;;;;;;19.10;3.28;;;14.20;99.90;;;;;;6082500;23;20081;-86
2021/05/21 06:40:33;;;;;;;10.63;1.80;;;14.40;99.90;;;;;;6094113;23;20045;-87
2021/05/21 06:43:09;;;;;;;14.18;1.90;;;14.50;99.90;;;;;;6096375;23;20342;-87
2021/05/21 06:45:37;;;;;;;12.45;3.05;;;14.50;99.90;;;;;;6080963;23;20093;-87
2021/05/21 06:48:04;;;;;;;21.15;3.22;;;14.50;99.90;;;;;;6119840;23;20021;-85
2021/05/21 06:50:31;;;;;;;19.30;3.35;;;14.50;99.90;;;;;;6094151;23;20497;-86
2021/05/21 06:52:58;;;;;;;17.42;3.88;;;14.40;99.90;;;;;;6097771;23;20040;-86
2021/05/21 06:55:26;;;;;;;15.25;2.58;;;14.40;99.90;;;;;;6074586;23;20071;-85
2021/05/21 06:57:53;;;;;;;10.30;1.70;;;14.30;99.90;;;;;;6092933;23;20038;-86
2021/05/21 07:00:20;;;;;;;10.45;2.58;;;14.20;99.90;;;;;;6091965;23;20018;-86
2021/05/21 07:02:47;;;;;;;25.02;4.65;;;14.10;99.90;;;;;;6094749;23;20034;-87
2021/05/21 07:05:14;;;;;;;17.35;2.10;;;14.00;99.90;;;;;;6094158;23;20076;-87
2021/05/21 07:07:41;;;;;;;17.33;2.55;;;13.90;99.90;;;;;;6094395;23;20478;-88
2021/05/21 07:10:09;;;;;;;17.95;2.28;;;13.80;99.90;;;;;;6094912;23;20068;-87
2021/05/21 07:12:36;;;;;;;10.45;2.10;;;13.70;99.90;;;;;;6095000;23;20061;-88
2021/05/21 07:15:05;;;;;;;26.13;2.50;;;13.70;99.90;;;;;;6052651;23;20002;-87
2021/05/21 07:17:32;;;;;;;10.75;2.08;;;13.70;99.90;;;;;;6094085;23;20045;-87
2021/05/21 07:20:01;;;;;;;13.77;2.30;;;13.70;99.90;;;;;;6093950;23;20380;-87
2021/05/21 07:22:31;;;;;;;13.45;3.05;;;13.80;99.90;;;;;;6096834;23;20042;-87
2021/05/21 07:24:58;;;;;;;13.10;1.95;;;13.80;99.90;;;;;;6095799;23;20022;-87
2021/05/21 07:27:25;;;;;;;13.50;2.58;;;13.90;99.90;;;;;;6092136;23;20053;-88
2021/05/21 07:29:52;;;;;;;9.45;2.65;;;14.00;99.90;;;;;;6095254;23;20056;-88
2021/05/21 07:32:18;;;;;;;15.55;2.10;;;14.10;99.90;;;;;;6084099;23;20010;-88
2021/05/21 07:34:46;;;;;;;14.80;2.10;;;14.30;99.90;;;;;;6101082;23;20021;-87
2021/05/21 07:37:13;;;;;;;17.98;2.30;;;14.40;99.90;;;;;;6099153;23;20021;-87
2021/05/21 07:39:40;;;;;;;15.50;3.22;;;14.50;99.90;;;;;;6094236;23;20097;-87
2021/05/21 07:42:08;;;;;;;16.00;2.67;;;14.60;99.00;;;;;;6092470;23;20018;-87
2021/05/21 07:44:34;;;;;;;14.30;2.17;;;14.70;98.70;;;;;;6078051;23;20611;-87
2021/05/21 07:47:01;;;;;;;12.23;2.35;;;14.70;98.60;;;;;;6092933;23;20062;-87
2021/05/21 07:49:28;;;;;;;12.18;2.45;;;14.70;98.50;;;;;;6094915;23;20106;-86
2021/05/21 07:51:55;;;;;;;19.10;2.45;;;14.80;98.00;;;;;;6091121;23;20049;-87
2021/05/21 07:54:22;;;;;;;9.95;2.53;;;14.80;97.30;;;;;;6089128;23;20064;-87
2021/05/21 07:56:49;;;;;;;13.45;2.55;;;14.70;96.50;;;;;;6089812;23;20497;-87
2021/05/21 07:59:16;;;;;;;16.77;2.50;;;14.70;97.40;;;;;;6094115;23;20225;-86
2021/05/21 08:01:44;;;;;;;16.60;2.67;;;15.00;98.00;;;;;;6094048;23;20037;-87
2021/05/21 08:04:12;;;;;;;13.80;2.25;;;15.40;97.10;;;;;;6094943;23;20027;-87
2021/05/21 08:06:41;;;;;;;10.70;2.55;;;15.50;96.20;;;;;;6090953;23;20102;-87
2021/05/21 08:09:09;;;;;;;14.98;2.75;;;15.60;95.50;;;;;;6093930;23;20029;-87
2021/05/21 08:11:36;;;;;;;12.00;2.38;;;15.50;94.80;;;;;;6096345;23;20022;-87
2021/05/21 08:14:04;;;;;;;14.40;3.20;;;15.40;94.50;;;;;;6095471;23;20022;-87
2021/05/21 08:16:30;;;;;;;11.55;2.10;;;15.40;95.00;;;;;;6086783;23;20014;-88
2021/05/21 08:18:57;;;;;;;16.90;2.72;;;15.40;95.70;;;;;;6090409;23;20068;-88
2021/05/21 08:21:26;;;;;;;15.75;1.90;;;15.40;95.10;;;;;;6091758;23;20089;-87
2021/05/21 08:23:54;;;;;;;16.33;2.00;;;15.40;94.90;;;;;;6092027;23;20018;-88
2021/05/21 08:26:27;;;;;;;18.55;2.30;;;15.40;94.70;;;;;;6091203;23;20479;-87
2021/05/21 08:28:55;;;;;;;16.77;2.83;;;15.40;94.60;;;;;;6091207;23;20019;-87
2021/05/21 08:31:23;;;;;;;10.73;1.77;;;15.50;95.40;;;;;;6089998;23;22639;-86
2021/05/21 08:33:51;;;;;;;11.25;2.17;;;15.50;94.20;;;;;;6090523;23;20073;-89
2021/05/21 08:36:20;;;;;;;16.33;2.20;;;15.60;94.70;;;;;;6090145;23;20461;-86
2021/05/21 08:38:49;;;;;;;14.40;2.95;;;15.60;94.90;;;;;;6091872;23;20042;-85
2021/05/21 08:41:18;;;;;;;21.05;3.20;;;15.60;94.50;;;;;;6088559;23;20125;-86
2021/05/21 08:43:48;;;;;;;21.02;3.20;;;15.60;94.00;;;;;;6087941;23;20025;-85
2021/05/21 08:46:21;;;;;;;21.15;2.00;;;15.60;93.90;;;;;;6087492;23;20466;-86
2021/05/21 08:48:48;;;;;;;;;;;15.60;94.60;;;;;;6088329;23;20015;-86
2021/05/21 08:51:16;;;;;;;12.50;1.85;;;15.80;93.80;;;;;;6094929;23;19917;-85
2021/05/21 08:53:50;;;;;;;7.65;1.77;;;15.90;92.80;;;;;;6080373;23;20050;-85
2021/05/21 08:56:17;;;;;;;10.88;1.90;;;16.00;92.90;;;;;;6092738;23;20513;-85
2021/05/21 08:58:44;;;;;;;11.57;1.77;;;16.10;93.60;;;;;;6093647;23;20109;-85
2021/05/21 09:01:11;;;;;;;19.05;2.40;;;16.20;95.20;;;;;;6093745;23;20467;-85
2021/05/21 09:03:38;;;;;;;19.02;3.30;;;16.10;95.00;;;;;;6090967;23;20053;-85
2021/05/21 09:06:16;;;;;;;13.38;2.17;;;15.80;95.80;;;;;;6093673;23;20010;-86
2021/05/21 09:08:44;;;;;;;11.55;1.80;;;15.50;95.50;;;;;;6096959;23;20027;-85
2021/05/21 09:11:27;;;;;;;16.02;1.42;;;15.30;95.30;;;;;;6094035;23;20066;-85
2021/05/21 09:14:14;;;;;;;14.43;1.95;;;15.20;95.70;;;;;;6092337;23;20010;-85
2021/05/21 09:16:43;;;;;;;11.30;2.80;;;15.10;96.20;;;;;;6094320;23;20038;-85
2021/05/21 09:19:20;;;;;;;10.20;1.90;;;14.80;98.40;;;;;;6095213;23;20027;-86
2021/05/21 09:22:08;;;;;;;14.75;1.88;;;14.40;99.90;;;;;;6091926;23;20029;-85
2021/05/21 09:24:45;;;;;;;14.85;2.38;;;14.00;99.90;;;;;;6088697;23;20022;-84
2021/05/21 09:27:14;;;;;;;13.77;2.40;;;13.60;99.90;;;;;;6090767;23;20468;-85
2021/05/21 09:29:50;;;;;;;13.20;2.47;;;13.30;99.90;;;;;;6081644;23;20022;-85
2021/05/21 09:32:28;;;;;;;16.60;2.70;;;13.00;99.90;;;;;;6092223;23;20513;-84
2021/05/21 09:35:07;;;;;;;10.63;2.60;;;12.80;99.90;;;;;;6092052;23;20022;-84
2021/05/21 09:37:36;;;;;;;13.93;2.30;;;12.80;99.90;;;;;;6093513;23;20049;-84
2021/05/21 09:40:12;;;;;;;17.40;2.88;;;12.80;99.90;;;;;;6093007;23;20029;-83
2021/05/21 09:42:49;;;;;;;16.35;3.00;;;13.00;99.90;;;;;;6096045;23;20049;-85
2021/05/21 09:45:29;;;;;;;8.65;2.70;;;13.20;99.90;;;;;;6097019;23;20030;-84
2021/05/21 09:48:09;;;;;;;11.27;2.67;;;13.40;99.90;;;;;;6095504;23;20101;-83
2021/05/21 09:50:38;;;;;;;15.60;2.13;;;13.50;99.90;;;;;;6093299;23;20027;-83
2021/05/21 09:53:22;;;;;;;14.73;2.50;;;13.50;99.90;;;;;;6090470;23;20026;-84
2021/05/21 09:55:55;;;;;;;10.70;2.47;;;13.60;99.90;;;;;;6085903;23;20049;-83
2021/05/21 09:58:43;;;;;;;17.60;2.65;;;13.70;99.90;;;;;;6089765;23;20006;-83
2021/05/21 10:01:20;;;;;;;11.38;2.28;;;13.80;99.90;;;;;;6085785;23;20064;-85
2021/05/21 10:03:58;;;;;;;11.02;1.60;;;13.60;99.90;;;;;;6091306;23;20019;-85
2021/05/21 10:06:26;;;;;;;12.70;2.47;;;13.20;99.90;;;;;;6089141;23;20027;-86
2021/05/21 10:08:56;;;;;;;12.38;3.70;;;12.90;99.90;;;;;;6090872;23;20037;-83
2021/05/21 10:11:23;;;;;;;10.18;2.28;;;12.90;99.90;;;;;;6089990;23;20062;-84
2021/05/21 10:13:50;;;;;;;14.32;2.22;;;13.10;99.90;;;;;;6090224;23;20022;-84
2021/05/21 10:16:18;;;;;;;14.35;2.50;;;13.30;99.90;;;;;;6090807;23;20022;-84
2021/05/21 10:18:47;;;;;;;15.57;2.17;;;13.30;99.90;;;;;;6064650;23;20030;-84
2021/05/21 10:21:15;;;;;;;9.07;2.40;;;13.40;99.90;;;;;;6088170;23;20482;-84
2021/05/21 10:23:50;;;;;;;10.80;3.45;;;13.70;99.90;;;;;;6087624;23;20033;-84
2021/05/21 10:26:33;;;;;;;6.65;2.83;;;14.00;99.90;;;;;;6087435;23;20101;-84
2021/05/21 10:29:04;;;;;;;11.88;2.67;;;14.40;99.90;;;;;;6090128;23;20050;-84
2021/05/21 10:31:32;;;;;;;13.07;2.75;;;14.90;99.90;;;;;;6085672;23;20049;-84
2021/05/21 10:34:22;;;;;;;12.15;1.73;;;15.20;99.90;;;;;;6087721;23;20984;-84
2021/05/21 10:36:49;;;;;;;11.50;1.73;;;15.40;99.90;;;;;;6088571;23;20129;-84
2021/05/21 10:39:21;;;;;;;10.68;1.80;;;15.20;99.90;;;;;;6089100;23;20034;-84
2021/05/21 10:41:56;;;;;;;9.68;2.08;;;14.80;99.90;;;;;;6087543;23;20074;-85
2021/05/21 10:44:26;;;;;;;10.85;2.55;;;14.60;99.90;;;;;;6090100;23;20459;-84
2021/05/21 10:47:24;;;;;;;13.20;1.88;;;14.60;99.90;;;;;;6089479;23;20019;-85
2021/05/21 10:49:50;;;;;;;7.63;2.25;;;14.60;99.90;;;;;;6093723;23;20018;-85
2021/05/21 10:52:19;;;;;;;9.55;2.00;;;14.70;99.90;;;;;;6088836;23;20015;-84
2021/05/21 10:54:50;;;;;;;10.65;1.85;;;15.00;99.90;;;;;;6086666;23;20056;-85
2021/05/21 10:57:23;;;;;;;6.97;1.40;;;15.40;99.90;;;;;;6080045;23;20018;-85
2021/05/21 10:59:56;;;;;;;11.32;1.67;;;15.90;99.80;;;;;;6091225;23;20508;-85
2021/05/21 11:02:49;;;;;;;11.65;1.73;;;16.30;99.80;;;;;;6090013;23;20085;-85
2021/05/21 11:05:36;;;;;;;9.05;1.48;;;16.60;96.90;;;;;;6090397;23;20451;-85
2021/05/21 11:08:13;;;;;;;10.75;1.98;;;16.40;96.50;;;;;;6090080;23;20022;-85
2021/05/21 11:10:43;;;;;;;11.45;3.45;;;16.00;98.30;;;;;;6089878;23;20021;-85
2021/05/21 11:13:15;;;;;;;11.82;2.70;;;15.60;99.90;;;;;;6089670;23;20081;-85
2021/05/21 11:15:44;;;;;;;13.52;2.88;;;15.60;99.90;;;;;;6089177;23;20086;-85
2021/05/21 11:18:17;;;;;;;14.57;2.50;;;15.60;99.90;;;;;;6091215;23;20542;-85
2021/05/21 11:21:07;;;;;;;8.82;1.70;;;15.50;99.90;;;;;;6090625;23;20400;-84
2021/05/21 11:23:36;;;;;;;10.32;2.53;;;15.30;99.90;;;;;;6091101;23;20006;-85
2021/05/21 11:26:18;;;;;;;7.40;1.65;;;15.20;99.90;;;;;;6089835;23;20046;-85
2021/05/21 11:28:50;;;;;;;6.82;1.23;;;15.40;99.90;;;;;;6088272;23;20026;-86
2021/05/21 11:31:29;;;;;;;8.43;1.23;;;15.70;99.10;;;;;;6090258;23;20026;-86
2021/05/21 11:34:02;;;;;;;5.38;1.40;;;15.80;98.10;;;;;;6092496;23;20030;-85
2021/05/21 11:36:31;;;;;;;12.13;2.00;;;15.80;97.20;;;;;;6081153;23;20018;-86
2021/05/21 11:38:58;;;;;;;7.55;1.30;;;15.90;97.70;;;;;;6088391;23;20262;-86
2021/05/21 11:41:30;;;;;;;10.90;1.40;;;16.20;97.50;;;;;;6089161;23;20475;-86
2021/05/21 11:44:06;;;;;;;9.25;1.92;;;16.50;95.40;;;;;;6079956;23;20053;-85
2021/05/21 11:46:38;;;;;;;10.23;1.55;;;16.70;94.50;;;;;;6092248;23;20117;-85
2021/05/21 11:49:18;;;;;;;12.15;2.08;;;16.60;94.00;;;;;;6090628;23;20054;-85
2021/05/21 11:51:58;;;;;;;10.27;1.65;;;16.60;93.30;;;;;;6090890;23;20054;-84
2021/05/21 11:54:26;;;;;;;6.70;2.17;;;16.80;94.90;;;;;;6090509;23;20026;-85
2021/05/21 11:56:54;;;;;;;12.43;1.92;;;17.60;94.90;;;;;;6090716;23;20030;-85
2021/05/21 11:59:23;;;;;;;9.00;1.50;;;18.50;93.80;;;;;;6088088;23;20022;-86
2021/05/21 12:01:54;;;;;;;8.50;1.13;;;19.40;90.00;;;;;;6090058;23;20018;-85
2021/05/21 12:04:23;;;;;;;6.90;1.17;;;20.00;80.80;;;;;;6088382;23;20391;-85
2021/05/21 12:06:52;;;;;;;7.80;2.08;;;19.80;77.30;;;;;;6078088;23;20531;-85
2021/05/21 12:09:20;;;;;;;10.00;1.40;;;19.30;73.80;;;;;;6075873;23;20037;-86
2021/05/21 12:11:52;;;;;;;16.48;1.77;;;18.90;75.00;;;;;;6073817;23;20046;-85
2021/05/21 12:14:24;;;;;;;9.18;1.52;;;19.20;74.50;;;;;;6077301;23;20022;-85
2021/05/21 12:17:01;;;;;;;11.35;1.50;;;19.90;73.20;;;;;;6078417;23;20027;-87
2021/05/21 12:19:28;;;;;;;6.88;2.15;;;20.30;70.60;;;;;;6056071;23;20026;-85
2021/05/21 12:21:56;;;;;;;18.17;1.85;;;20.40;70.30;;;;;;6076888;23;21631;-85
2021/05/21 12:24:25;;;;;;;11.32;1.98;;;20.10;67.10;;;;;;6080926;23;20041;-85
2021/05/21 12:26:52;;;;;;;10.95;1.70;;;19.80;70.80;;;;;;6082218;23;20034;-85
2021/05/21 12:29:21;;;;;;;11.88;2.60;;;19.80;70.10;;;;;;6064715;23;20026;-86
2021/05/21 12:31:53;;;;;;;5.72;1.02;;;19.90;67.30;;;;;;6091071;23;20047;-86
2021/05/21 12:34:23;;;;;;;9.00;1.92;;;20.00;69.30;;;;;;6094829;23;20022;-86
2021/05/21 12:36:58;;;;;;;6.43;1.42;;;19.90;69.40;;;;;;6096599;23;20091;-84
2021/05/21 12:39:40;;;;;;;8.18;1.90;;;19.80;72.10;;;;;;6092797;23;20027;-85
2021/05/21 12:42:07;;;;;;;6.15;1.30;;;19.90;69.80;;;;;;6090887;23;20033;-85
2021/05/21 12:44:43;;;;;;;12.98;1.35;;;19.90;68.20;;;;;;6083711;23;20060;-86
2021/05/21 12:47:10;;;;;;;10.07;2.03;;;20.40;67.80;;;;;;6076782;23;20018;-86
2021/05/21 12:49:37;;;;;;;7.75;1.60;;;20.10;67.00;;;;;;6078376;23;20026;-86